Hauptseite
METAR-TAF:

METAR-TAF

Flughäfen :

Nörvenich, Deutschland

Fliegerhorst Nörvenich

Breite: 50-50N, Länge: 006-40E, Höhe: 118 m

Beobachtung

Neuester Wetterbericht von vor 41 Minuten, um 21:20 UTC
Wind 11 kt aus Ost
Temperatur -1°C
Luftfeuchtigkeit 46%
Luftdruck 1025 hPa
Sichtweite 10 km oder mehr

METAR: ETNN 242120Z AUTO 09011KT 9999 // ////// M01/M11 Q1025 ///

Zeit: 23:01 (22:01 UTC)


TAF: fehlend

Wetterbeobachtungen und Prognosen von mehr als 4000 Flughäfen (METAR und TAF Bericht).

Die verfügbaren Stationen werden durch gelbe und rote Markierungen auf der Karte dargestellt.

Führen Sie die Maus auf sie, um den Namen der Station zu sehen.

Darauf klicken, um die Beobachtung von Wetterbeobachtungen und Prognosen zu sehen.

Um die Karte zu ändern : klicken Sie auf den grünen Tasten mit einem schwarzen Kreuz Zum Vergrößern, auf den grünen Button mit einem Gedankenstrich zu verkleinern, oder auf die grünen Pfeile für benachbarte Karten.


METAR-TAF: